Terminal Aerodrome Forecast
Issued by NWS

Home | Current Version | Previous Version | Text Only | Print | Product List | Glossary On
Versions: 1 2 3 4 5 6 7 8 9 10 11 12 13 14 15 16
579
FTUS46 KSEW 271123
TAFPAE
TAF
KPAE 271123Z 2712/2812 15005KT P6SM -SHRA OVC025
     FM271600 18007KT P6SM VCSH OVC025
     FM271900 26010KT P6SM VCSH BKN035
     FM272200 34006KT P6SM VCSH BKN035
     FM280000 36006KT P6SM VCSH BKN035
     FM280600 12005KT P6SM OVC030
     FM280900 15006KT P6SM OVC020=

USA.gov is the U.S. government's official web portal to all federal, state and local government web resources and services.